sensor_id;sensor_type;location;lat;lon;timestamp;pressure;altitude;pressure_sealevel;temperature;humidity
20696;BME280;10507;52.754;13.040;2023-07-24T00:00:54;99949.38;;;18.46;92.85
20696;BME280;10507;52.754;13.040;2023-07-24T00:03:22;99954.66;;;18.48;92.48
20696;BME280;10507;52.754;13.040;2023-07-24T00:05:50;99956.66;;;18.46;92.76
20696;BME280;10507;52.754;13.040;2023-07-24T00:08:18;99951.38;;;18.44;92.68
20696;BME280;10507;52.754;13.040;2023-07-24T00:10:46;99955.50;;;18.48;92.61
20696;BME280;10507;52.754;13.040;2023-07-24T00:13:16;99949.09;;;18.49;92.50
20696;BME280;10507;52.754;13.040;2023-07-24T00:15:44;99940.69;;;18.53;92.36
20696;BME280;10507;52.754;13.040;2023-07-24T00:18:11;99942.13;;;18.57;92.39
20696;BME280;10507;52.754;13.040;2023-07-24T00:20:39;99933.00;;;18.58;92.23
20696;BME280;10507;52.754;13.040;2023-07-24T00:23:07;99936.28;;;18.61;92.12
20696;BME280;10507;52.754;13.040;2023-07-24T00:25:35;99935.25;;;18.62;92.00
20696;BME280;10507;52.754;13.040;2023-07-24T00:28:03;99934.13;;;18.65;92.02
20696;BME280;10507;52.754;13.040;2023-07-24T00:30:33;99935.00;;;18.65;92.10
20696;BME280;10507;52.754;13.040;2023-07-24T00:33:01;99935.00;;;18.65;92.11
20696;BME280;10507;52.754;13.040;2023-07-24T00:35:29;99927.84;;;18.64;91.87
20696;BME280;10507;52.754;13.040;2023-07-24T00:37:56;99923.28;;;18.65;91.94
20696;BME280;10507;52.754;13.040;2023-07-24T00:40:24;99924.19;;;18.65;91.93
20696;BME280;10507;52.754;13.040;2023-07-24T00:42:52;99928.56;;;18.66;91.64
20696;BME280;10507;52.754;13.040;2023-07-24T00:45:21;99931.84;;;18.70;91.74
20696;BME280;10507;52.754;13.040;2023-07-24T00:47:51;99926.00;;;18.75;91.79
20696;BME280;10507;52.754;13.040;2023-07-24T00:50:19;99928.13;;;18.81;91.52
20696;BME280;10507;52.754;13.040;2023-07-24T00:52:48;99918.72;;;18.85;91.10
20696;BME280;10507;52.754;13.040;2023-07-24T00:55:16;99912.00;;;18.89;90.88
20696;BME280;10507;52.754;13.040;2023-07-24T00:57:46;99914.56;;;18.90;91.08
20696;BME280;10507;52.754;13.040;2023-07-24T01:00:14;99912.00;;;18.89;90.77
20696;BME280;10507;52.754;13.040;2023-07-24T01:02:43;99910.00;;;18.91;91.09
20696;BME280;10507;52.754;13.040;2023-07-24T01:05:14;99915.28;;;18.93;91.10
20696;BME280;10507;52.754;13.040;2023-07-24T01:07:42;99911.41;;;18.95;91.24
20696;BME280;10507;52.754;13.040;2023-07-24T01:10:10;99907.41;;;18.99;90.78
20696;BME280;10507;52.754;13.040;2023-07-24T01:12:44;99910.66;;;19.03;90.93
20696;BME280;10507;52.754;13.040;2023-07-24T01:15:18;99916.63;;;19.06;90.99
20696;BME280;10507;52.754;13.040;2023-07-24T01:17:50;99915.78;;;19.06;90.89
20696;BME280;10507;52.754;13.040;2023-07-24T01:20:22;99908.66;;;19.05;91.16
20696;BME280;10507;52.754;13.040;2023-07-24T01:23:21;99921.75;;;19.09;91.30
20696;BME280;10507;52.754;13.040;2023-07-24T01:25:59;99917.19;;;19.10;91.53
20696;BME280;10507;52.754;13.040;2023-07-24T01:28:29;99909.75;;;19.12;91.23
20696;BME280;10507;52.754;13.040;2023-07-24T01:30:57;99910.47;;;19.14;91.21
20696;BME280;10507;52.754;13.040;2023-07-24T01:33:25;99899.81;;;19.13;91.23
20696;BME280;10507;52.754;13.040;2023-07-24T01:36:02;99911.31;;;19.15;91.68
20696;BME280;10507;52.754;13.040;2023-07-24T01:38:31;99921.16;;;19.16;91.90
20696;BME280;10507;52.754;13.040;2023-07-24T01:41:02;99928.25;;;19.17;91.81
20696;BME280;10507;52.754;13.040;2023-07-24T01:43:31;99929.97;;;19.18;92.02
20696;BME280;10507;52.754;13.040;2023-07-24T01:45:59;99922.84;;;19.17;91.97
20696;BME280;10507;52.754;13.040;2023-07-24T01:48:27;99920.00;;;19.18;91.92
20696;BME280;10507;52.754;13.040;2023-07-24T01:50:55;99918.84;;;19.21;92.16
20696;BME280;10507;52.754;13.040;2023-07-24T01:53:23;99909.72;;;19.22;92.05
20696;BME280;10507;52.754;13.040;2023-07-24T01:55:51;99918.56;;;19.24;91.91
20696;BME280;10507;52.754;13.040;2023-07-24T01:58:23;99905.16;;;19.22;91.90
20696;BME280;10507;52.754;13.040;2023-07-24T02:00:51;99901.44;;;19.23;91.88
20696;BME280;10507;52.754;13.040;2023-07-24T02:03:22;99911.97;;;19.26;91.64
20696;BME280;10507;52.754;13.040;2023-07-24T02:05:50;99901.16;;;19.26;91.69
20696;BME280;10507;52.754;13.040;2023-07-24T02:08:18;99890.63;;;19.23;91.74
20696;BME280;10507;52.754;13.040;2023-07-24T02:10:48;99884.66;;;19.20;91.88
20696;BME280;10507;52.754;13.040;2023-07-24T02:13:16;99880.25;;;19.19;92.00
20696;BME280;10507;52.754;13.040;2023-07-24T02:15:45;99877.16;;;19.14;92.00
20696;BME280;10507;52.754;13.040;2023-07-24T02:18:14;99891.00;;;19.10;92.27
20696;BME280;10507;52.754;13.040;2023-07-24T02:20:48;99893.97;;;19.07;92.46
20696;BME280;10507;52.754;13.040;2023-07-24T02:23:16;99904.28;;;19.04;92.68
20696;BME280;10507;52.754;13.040;2023-07-24T02:25:44;99910.38;;;19.06;92.82
20696;BME280;10507;52.754;13.040;2023-07-24T02:28:12;99911.94;;;19.08;92.86
20696;BME280;10507;52.754;13.040;2023-07-24T02:30:40;99914.78;;;19.07;92.88
20696;BME280;10507;52.754;13.040;2023-07-24T02:33:09;99909.22;;;19.08;92.73
20696;BME280;10507;52.754;13.040;2023-07-24T02:35:41;99905.50;;;19.09;92.92
20696;BME280;10507;52.754;13.040;2023-07-24T02:38:09;99915.16;;;19.12;92.96
20696;BME280;10507;52.754;13.040;2023-07-24T02:40:37;99914.91;;;19.15;92.77
20696;BME280;10507;52.754;13.040;2023-07-24T02:43:05;99919.28;;;19.16;92.59
20696;BME280;10507;52.754;13.040;2023-07-24T02:45:34;99918.31;;;19.17;92.84
20696;BME280;10507;52.754;13.040;2023-07-24T02:48:02;99935.63;;;19.24;92.88
20696;BME280;10507;52.754;13.040;2023-07-24T02:50:32;99934.47;;;19.27;92.66
20696;BME280;10507;52.754;13.040;2023-07-24T02:53:00;99936.03;;;19.29;92.84
20696;BME280;10507;52.754;13.040;2023-07-24T02:55:28;99942.28;;;19.30;92.63
20696;BME280;10507;52.754;13.040;2023-07-24T02:57:56;99944.72;;;19.33;92.64
20696;BME280;10507;52.754;13.040;2023-07-24T03:00:25;99950.97;;;19.34;92.91
20696;BME280;10507;52.754;13.040;2023-07-24T03:02:53;99970.06;;;19.32;94.00
20696;BME280;10507;52.754;13.040;2023-07-24T03:05:21;99959.25;;;19.32;93.65
20696;BME280;10507;52.754;13.040;2023-07-24T03:07:51;99960.78;;;19.35;93.66
20696;BME280;10507;52.754;13.040;2023-07-24T03:10:19;99970.63;;;19.36;93.67
20696;BME280;10507;52.754;13.040;2023-07-24T03:12:47;99971.47;;;19.36;94.09
20696;BME280;10507;52.754;13.040;2023-07-24T03:15:15;99980.31;;;19.38;94.06
20696;BME280;10507;52.754;13.040;2023-07-24T03:17:43;99981.00;;;19.40;94.01
20696;BME280;10507;52.754;13.040;2023-07-24T03:20:13;99969.34;;;19.40;94.18
20696;BME280;10507;52.754;13.040;2023-07-24T03:22:42;99979.00;;;19.42;94.50
20696;BME280;10507;52.754;13.040;2023-07-24T03:25:12;99978.28;;;19.40;94.75
20696;BME280;10507;52.754;13.040;2023-07-24T03:27:41;99992.56;;;19.32;96.22
20696;BME280;10507;52.754;13.040;2023-07-24T03:30:09;100007.69;;;19.35;96.98
20696;BME280;10507;52.754;13.040;2023-07-24T03:32:37;100002.28;;;19.25;98.70
20696;BME280;10507;52.754;13.040;2023-07-24T03:35:06;100002.34;;;19.16;100.00
20696;BME280;10507;52.754;13.040;2023-07-24T03:37:35;100009.75;;;19.14;100.00
20696;BME280;10507;52.754;13.040;2023-07-24T03:40:03;100004.91;;;19.07;100.00
20696;BME280;10507;52.754;13.040;2023-07-24T03:42:33;100006.22;;;19.03;100.00
20696;BME280;10507;52.754;13.040;2023-07-24T03:45:01;100008.09;;;18.93;100.00
20696;BME280;10507;52.754;13.040;2023-07-24T03:47:29;100016.94;;;18.95;100.00
20696;BME280;10507;52.754;13.040;2023-07-24T03:49:57;100022.06;;;18.88;100.00
20696;BME280;10507;52.754;13.040;2023-07-24T03:52:25;100011.25;;;18.79;100.00
20696;BME280;10507;52.754;13.040;2023-07-24T03:54:53;100021.63;;;18.74;100.00
20696;BME280;10507;52.754;13.040;2023-07-24T03:57:21;100033.16;;;18.76;100.00
20696;BME280;10507;52.754;13.040;2023-07-24T03:59:51;100038.00;;;18.62;100.00
20696;BME280;10507;52.754;13.040;2023-07-24T04:02:19;100043.41;;;18.62;100.00
20696;BME280;10507;52.754;13.040;2023-07-24T04:04:47;100062.34;;;18.62;100.00
20696;BME280;10507;52.754;13.040;2023-07-24T04:07:15;100073.16;;;18.62;100.00
20696;BME280;10507;52.754;13.040;2023-07-24T04:09:43;100079.72;;;18.60;100.00
20696;BME280;10507;52.754;13.040;2023-07-24T04:12:11;100080.16;;;18.55;100.00
20696;BME280;10507;52.754;13.040;2023-07-24T04:14:39;100092.09;;;18.62;100.00
20696;BME280;10507;52.754;13.040;2023-07-24T04:17:09;100096.34;;;18.65;100.00
20696;BME280;10507;52.754;13.040;2023-07-24T04:19:37;100083.56;;;18.67;100.00
20696;BME280;10507;52.754;13.040;2023-07-24T04:22:05;100109.34;;;18.81;100.00
20696;BME280;10507;52.754;13.040;2023-07-24T04:24:33;100112.03;;;18.81;100.00
20696;BME280;10507;52.754;13.040;2023-07-24T04:27:01;100134.25;;;18.94;100.00
20696;BME280;10507;52.754;13.040;2023-07-24T04:29:29;100106.47;;;18.92;100.00
20696;BME280;10507;52.754;13.040;2023-07-24T04:31:57;100136.09;;;18.94;100.00
20696;BME280;10507;52.754;13.040;2023-07-24T04:34:27;100128.41;;;18.89;100.00
20696;BME280;10507;52.754;13.040;2023-07-24T04:36:55;100166.72;;;18.94;100.00
20696;BME280;10507;52.754;13.040;2023-07-24T04:39:23;100159.31;;;18.96;100.00
20696;BME280;10507;52.754;13.040;2023-07-24T04:41:51;100151.19;;;18.96;100.00
20696;BME280;10507;52.754;13.040;2023-07-24T04:44:19;100159.47;;;19.04;100.00
20696;BME280;10507;52.754;13.040;2023-07-24T04:46:47;100152.75;;;19.08;100.00
20696;BME280;10507;52.754;13.040;2023-07-24T04:49:15;100153.88;;;19.16;100.00
20696;BME280;10507;52.754;13.040;2023-07-24T04:51:44;100176.78;;;19.41;100.00
20696;BME280;10507;52.754;13.040;2023-07-24T04:54:12;100184.34;;;20.31;100.00
20696;BME280;10507;52.754;13.040;2023-07-24T04:56:40;100102.94;;;20.95;100.00
20696;BME280;10507;52.754;13.040;2023-07-24T04:59:08;100081.78;;;21.85;100.00
20696;BME280;10507;52.754;13.040;2023-07-24T05:01:36;100018.56;;;22.58;98.87
20696;BME280;10507;52.754;13.040;2023-07-24T05:04:05;99815.25;;;22.28;95.27
20696;BME280;10507;52.754;13.040;2023-07-24T05:06:33;99862.78;;;22.56;94.14
20696;BME280;10507;52.754;13.040;2023-07-24T05:09:05;99860.47;;;22.84;92.55
20696;BME280;10507;52.754;13.040;2023-07-24T05:11:33;99920.56;;;23.31;91.24
20696;BME280;10507;52.754;13.040;2023-07-24T05:14:01;99850.31;;;23.18;90.74
20696;BME280;10507;52.754;13.040;2023-07-24T05:16:29;99863.06;;;23.80;87.78
20696;BME280;10507;52.754;13.040;2023-07-24T05:18:58;99903.81;;;24.42;85.50
20696;BME280;10507;52.754;13.040;2023-07-24T05:21:26;99743.81;;;24.41;84.05
20696;BME280;10507;52.754;13.040;2023-07-24T05:23:54;99875.25;;;24.98;83.64
20696;BME280;10507;52.754;13.040;2023-07-24T05:26:23;99877.38;;;25.68;80.18
20696;BME280;10507;52.754;13.040;2023-07-24T05:28:51;99643.84;;;25.56;79.17
20696;BME280;10507;52.754;13.040;2023-07-24T05:31:20;99755.84;;;25.92;78.73
20696;BME280;10507;52.754;13.040;2023-07-24T05:33:48;99666.50;;;26.06;77.93
20696;BME280;10507;52.754;13.040;2023-07-24T05:36:16;99670.16;;;26.62;75.82
20696;BME280;10507;52.754;13.040;2023-07-24T05:38:44;99553.84;;;26.51;75.79
20696;BME280;10507;52.754;13.040;2023-07-24T05:41:12;99585.69;;;26.79;74.72
20696;BME280;10507;52.754;13.040;2023-07-24T05:43:41;99435.03;;;26.32;76.05
20696;BME280;10507;52.754;13.040;2023-07-24T05:46:10;99317.78;;;26.22;75.96
20696;BME280;10507;52.754;13.040;2023-07-24T05:48:38;99323.44;;;25.74;77.08
20696;BME280;10507;52.754;13.040;2023-07-24T05:51:06;99301.25;;;25.36;78.22
20696;BME280;10507;52.754;13.040;2023-07-24T05:53:34;99351.28;;;24.95;79.83
20696;BME280;10507;52.754;13.040;2023-07-24T05:56:02;99336.50;;;24.47;80.91
20696;BME280;10507;52.754;13.040;2023-07-24T05:58:30;99493.47;;;24.65;81.70
20696;BME280;10507;52.754;13.040;2023-07-24T06:01:00;99499.50;;;25.10;80.30
20696;BME280;10507;52.754;13.040;2023-07-24T06:03:28;99591.19;;;26.10;77.89
20696;BME280;10507;52.754;13.040;2023-07-24T06:05:57;99587.19;;;26.88;75.21
20696;BME280;10507;52.754;13.040;2023-07-24T06:08:25;99589.34;;;27.39;73.64
20696;BME280;10507;52.754;13.040;2023-07-24T06:10:53;99545.38;;;27.72;71.94
20696;BME280;10507;52.754;13.040;2023-07-24T06:13:21;99398.25;;;27.40;71.75
20696;BME280;10507;52.754;13.040;2023-07-24T06:15:49;99453.16;;;27.85;71.39
20696;BME280;10507;52.754;13.040;2023-07-24T06:18:18;99530.09;;;28.48;70.27
20696;BME280;10507;52.754;13.040;2023-07-24T06:20:47;99374.50;;;28.86;67.05
20696;BME280;10507;52.754;13.040;2023-07-24T06:23:16;99470.97;;;29.58;66.13
20696;BME280;10507;52.754;13.040;2023-07-24T06:25:44;99373.13;;;29.69;65.65
20696;BME280;10507;52.754;13.040;2023-07-24T06:28:12;99273.38;;;29.55;65.68
20696;BME280;10507;52.754;13.040;2023-07-24T06:30:40;99208.78;;;29.57;64.51
20696;BME280;10507;52.754;13.040;2023-07-24T06:33:08;99295.94;;;29.75;64.80
20696;BME280;10507;52.754;13.040;2023-07-24T06:35:37;99235.53;;;29.38;65.40
20696;BME280;10507;52.754;13.040;2023-07-24T06:38:05;99255.00;;;29.67;64.42
20696;BME280;10507;52.754;13.040;2023-07-24T06:40:35;99340.44;;;30.02;64.19
20696;BME280;10507;52.754;13.040;2023-07-24T06:43:02;99198.28;;;29.66;63.81
20696;BME280;10507;52.754;13.040;2023-07-24T06:45:33;99270.41;;;30.10;63.37
20696;BME280;10507;52.754;13.040;2023-07-24T06:48:01;99251.72;;;30.59;61.80
20696;BME280;10507;52.754;13.040;2023-07-24T06:50:29;99257.72;;;30.68;62.08
20696;BME280;10507;52.754;13.040;2023-07-24T06:52:59;99178.66;;;30.57;61.57
20696;BME280;10507;52.754;13.040;2023-07-24T06:55:27;99223.28;;;30.82;61.01
20696;BME280;10507;52.754;13.040;2023-07-24T06:57:55;99231.22;;;31.36;59.36
20696;BME280;10507;52.754;13.040;2023-07-24T07:00:23;99198.19;;;31.53;58.97
20696;BME280;10507;52.754;13.040;2023-07-24T07:02:51;99202.88;;;31.69;57.72
20696;BME280;10507;52.754;13.040;2023-07-24T07:05:19;99146.38;;;30.81;59.51
20696;BME280;10507;52.754;13.040;2023-07-24T07:07:47;99128.44;;;30.66;59.85
20696;BME280;10507;52.754;13.040;2023-07-24T07:10:17;99168.25;;;30.59;60.12
20696;BME280;10507;52.754;13.040;2023-07-24T07:12:45;99238.50;;;30.85;60.53
20696;BME280;10507;52.754;13.040;2023-07-24T07:15:13;99226.03;;;30.94;59.76
20696;BME280;10507;52.754;13.040;2023-07-24T07:17:41;99303.09;;;31.41;58.92
20696;BME280;10507;52.754;13.040;2023-07-24T07:20:09;99288.34;;;31.64;58.16
20696;BME280;10507;52.754;13.040;2023-07-24T07:22:37;99218.50;;;31.18;58.30
20696;BME280;10507;52.754;13.040;2023-07-24T07:25:06;99175.56;;;31.22;57.99
20696;BME280;10507;52.754;13.040;2023-07-24T07:27:35;99240.53;;;31.30;58.37
20696;BME280;10507;52.754;13.040;2023-07-24T07:30:04;99222.97;;;31.36;57.84
20696;BME280;10507;52.754;13.040;2023-07-24T07:32:33;99286.56;;;31.29;58.70
20696;BME280;10507;52.754;13.040;2023-07-24T07:35:01;99232.34;;;31.35;58.05
20696;BME280;10507;52.754;13.040;2023-07-24T07:37:30;99216.25;;;31.15;58.40
20696;BME280;10507;52.754;13.040;2023-07-24T07:39:58;99333.72;;;31.57;59.09
20696;BME280;10507;52.754;13.040;2023-07-24T07:42:26;99165.53;;;30.88;58.78
20696;BME280;10507;52.754;13.040;2023-07-24T07:44:55;99240.31;;;31.20;57.93
20696;BME280;10507;52.754;13.040;2023-07-24T07:47:23;99179.19;;;30.82;58.56
20696;BME280;10507;52.754;13.040;2023-07-24T07:49:51;99237.00;;;30.07;60.57
20696;BME280;10507;52.754;13.040;2023-07-24T07:52:19;99257.56;;;29.80;61.01
20696;BME280;10507;52.754;13.040;2023-07-24T07:54:48;99285.59;;;30.01;60.95
20696;BME280;10507;52.754;13.040;2023-07-24T07:57:16;99276.22;;;29.78;61.87
20696;BME280;10507;52.754;13.040;2023-07-24T07:59:44;99250.75;;;29.53;62.00
20696;BME280;10507;52.754;13.040;2023-07-24T08:02:14;99301.09;;;29.72;61.94
20696;BME280;10507;52.754;13.040;2023-07-24T08:04:42;99275.44;;;29.29;62.05
20696;BME280;10507;52.754;13.040;2023-07-24T08:07:10;99314.63;;;29.73;61.79
20696;BME280;10507;52.754;13.040;2023-07-24T08:09:38;99337.47;;;29.74;61.92
20696;BME280;10507;52.754;13.040;2023-07-24T08:12:07;99290.75;;;29.55;61.84
20696;BME280;10507;52.754;13.040;2023-07-24T08:14:35;99280.28;;;29.46;61.88
20696;BME280;10507;52.754;13.040;2023-07-24T08:17:04;99259.59;;;28.76;63.42
20696;BME280;10507;52.754;13.040;2023-07-24T08:19:33;99206.16;;;27.41;65.11
20696;BME280;10507;52.754;13.040;2023-07-24T08:22:01;99278.78;;;27.19;66.29
20696;BME280;10507;52.754;13.040;2023-07-24T08:24:33;99314.50;;;26.99;67.69
20696;BME280;10507;52.754;13.040;2023-07-24T08:27:01;99333.22;;;27.02;67.49
20696;BME280;10507;52.754;13.040;2023-07-24T08:29:29;99310.47;;;27.01;66.95
20696;BME280;10507;52.754;13.040;2023-07-24T08:31:57;99344.19;;;27.02;67.44
20696;BME280;10507;52.754;13.040;2023-07-24T08:34:26;99305.28;;;26.86;66.88
20696;BME280;10507;52.754;13.040;2023-07-24T08:36:55;99337.28;;;26.92;67.28
20696;BME280;10507;52.754;13.040;2023-07-24T08:39:23;99305.75;;;26.63;67.70
20696;BME280;10507;52.754;13.040;2023-07-24T08:41:51;99303.25;;;26.62;67.40
20696;BME280;10507;52.754;13.040;2023-07-24T08:44:20;99326.81;;;26.69;67.95
20696;BME280;10507;52.754;13.040;2023-07-24T08:46:51;99302.38;;;26.61;67.98
20696;BME280;10507;52.754;13.040;2023-07-24T08:49:20;99350.59;;;26.82;68.09
20696;BME280;10507;52.754;13.040;2023-07-24T08:51:49;99329.00;;;27.06;66.83
20696;BME280;10507;52.754;13.040;2023-07-24T08:54:18;99354.09;;;27.61;66.37
20696;BME280;10507;52.754;13.040;2023-07-24T08:56:47;99317.53;;;27.74;65.20
20696;BME280;10507;52.754;13.040;2023-07-24T08:59:17;99268.97;;;27.74;64.78
20696;BME280;10507;52.754;13.040;2023-07-24T09:01:45;99204.25;;;27.42;64.31
20696;BME280;10507;52.754;13.040;2023-07-24T09:04:13;99292.78;;;27.81;64.62
20696;BME280;10507;52.754;13.040;2023-07-24T09:06:41;99216.16;;;27.86;63.69
20696;BME280;10507;52.754;13.040;2023-07-24T09:09:13;99199.78;;;27.72;63.44
20696;BME280;10507;52.754;13.040;2023-07-24T09:11:49;99185.63;;;27.50;63.12
20696;BME280;10507;52.754;13.040;2023-07-24T09:14:22;99166.88;;;27.15;63.58
20696;BME280;10507;52.754;13.040;2023-07-24T09:16:50;99203.97;;;27.25;63.64
20696;BME280;10507;52.754;13.040;2023-07-24T09:19:28;99227.41;;;27.46;63.94
20696;BME280;10507;52.754;13.040;2023-07-24T09:22:07;99213.03;;;27.50;64.35
20696;BME280;10507;52.754;13.040;2023-07-24T09:24:36;99246.50;;;27.34;64.98
20696;BME280;10507;52.754;13.040;2023-07-24T09:27:06;99241.53;;;27.49;64.50
20696;BME280;10507;52.754;13.040;2023-07-24T09:29:36;99240.66;;;27.81;63.59
20696;BME280;10507;52.754;13.040;2023-07-24T09:32:05;99148.06;;;26.94;64.29
20696;BME280;10507;52.754;13.040;2023-07-24T09:34:33;99196.53;;;26.93;65.05
20696;BME280;10507;52.754;13.040;2023-07-24T09:37:01;99217.91;;;27.10;64.86
20696;BME280;10507;52.754;13.040;2023-07-24T09:39:29;99208.88;;;27.09;64.65
20696;BME280;10507;52.754;13.040;2023-07-24T09:42:03;99197.97;;;27.34;63.65
20696;BME280;10507;52.754;13.040;2023-07-24T09:44:32;99253.50;;;27.87;62.81
20696;BME280;10507;52.754;13.040;2023-07-24T09:47:01;99247.03;;;28.25;62.18
20696;BME280;10507;52.754;13.040;2023-07-24T09:49:50;99245.88;;;28.57;61.54
20696;BME280;10507;52.754;13.040;2023-07-24T09:52:18;99263.44;;;28.75;61.13
20696;BME280;10507;52.754;13.040;2023-07-24T09:54:54;99212.00;;;28.82;60.69
20696;BME280;10507;52.754;13.040;2023-07-24T09:57:24;99142.75;;;28.62;60.05
20696;BME280;10507;52.754;13.040;2023-07-24T09:59:56;99103.84;;;28.09;61.38
20696;BME280;10507;52.754;13.040;2023-07-24T10:02:24;99141.97;;;28.17;61.98
20696;BME280;10507;52.754;13.040;2023-07-24T10:04:55;99167.13;;;28.33;62.14
20696;BME280;10507;52.754;13.040;2023-07-24T10:07:24;99129.00;;;27.88;62.69
20696;BME280;10507;52.754;13.040;2023-07-24T10:09:53;99202.06;;;28.44;62.35
20696;BME280;10507;52.754;13.040;2023-07-24T10:12:24;99177.38;;;28.63;61.07
20696;BME280;10507;52.754;13.040;2023-07-24T10:14:56;99216.81;;;29.17;60.46
20696;BME280;10507;52.754;13.040;2023-07-24T10:17:34;99155.81;;;29.38;59.31
20696;BME280;10507;52.754;13.040;2023-07-24T10:20:05;99185.13;;;29.45;59.62
20696;BME280;10507;52.754;13.040;2023-07-24T10:22:33;99157.63;;;29.45;59.46
20696;BME280;10507;52.754;13.040;2023-07-24T10:25:02;99102.56;;;28.79;60.00
20696;BME280;10507;52.754;13.040;2023-07-24T10:27:30;99114.78;;;28.65;59.95
20696;BME280;10507;52.754;13.040;2023-07-24T10:30:00;99108.66;;;28.51;60.51
20696;BME280;10507;52.754;13.040;2023-07-24T10:32:49;99076.22;;;28.41;60.61
20696;BME280;10507;52.754;13.040;2023-07-24T10:35:22;99141.81;;;28.68;61.11
20696;BME280;10507;52.754;13.040;2023-07-24T10:37:59;99078.78;;;28.73;59.80
20696;BME280;10507;52.754;13.040;2023-07-24T10:40:27;99065.66;;;28.75;59.73
20696;BME280;10507;52.754;13.040;2023-07-24T10:42:59;99030.16;;;28.73;59.45
20696;BME280;10507;52.754;13.040;2023-07-24T10:45:38;99032.31;;;28.83;59.04
20696;BME280;10507;52.754;13.040;2023-07-24T10:48:06;99041.72;;;28.64;59.72
20696;BME280;10507;52.754;13.040;2023-07-24T10:50:39;99022.63;;;28.69;59.17
20696;BME280;10507;52.754;13.040;2023-07-24T10:53:08;99021.50;;;28.58;59.44
20696;BME280;10507;52.754;13.040;2023-07-24T10:55:36;98999.97;;;28.43;59.43
20696;BME280;10507;52.754;13.040;2023-07-24T10:58:05;98984.13;;;28.27;59.34
20696;BME280;10507;52.754;13.040;2023-07-24T11:00:35;98996.09;;;28.32;59.30
20696;BME280;10507;52.754;13.040;2023-07-24T11:03:03;98979.22;;;28.17;59.85
20696;BME280;10507;52.754;13.040;2023-07-24T11:05:31;98973.38;;;27.95;60.50
20696;BME280;10507;52.754;13.040;2023-07-24T11:08:00;99008.56;;;27.79;61.59
20696;BME280;10507;52.754;13.040;2023-07-24T11:10:28;98985.56;;;27.44;62.55
20696;BME280;10507;52.754;13.040;2023-07-24T11:12:58;98983.63;;;27.26;61.94
20696;BME280;10507;52.754;13.040;2023-07-24T11:15:26;98987.75;;;27.10;62.38
20696;BME280;10507;52.754;13.040;2023-07-24T11:17:56;98974.59;;;26.75;62.18
20696;BME280;10507;52.754;13.040;2023-07-24T11:20:24;98990.41;;;26.73;62.36
20696;BME280;10507;52.754;13.040;2023-07-24T11:22:52;98982.25;;;26.66;62.40
20696;BME280;10507;52.754;13.040;2023-07-24T11:25:20;99006.78;;;26.80;61.99
20696;BME280;10507;52.754;13.040;2023-07-24T11:27:48;99014.22;;;26.98;61.98
20696;BME280;10507;52.754;13.040;2023-07-24T11:30:19;99018.53;;;27.12;61.70
20696;BME280;10507;52.754;13.040;2023-07-24T11:32:48;99033.25;;;27.43;61.13
20696;BME280;10507;52.754;13.040;2023-07-24T11:35:19;99046.28;;;27.66;60.79
20696;BME280;10507;52.754;13.040;2023-07-24T11:37:48;99018.63;;;27.67;60.42
20696;BME280;10507;52.754;13.040;2023-07-24T11:40:16;98999.66;;;27.47;60.69
20696;BME280;10507;52.754;13.040;2023-07-24T11:42:47;99040.97;;;27.27;61.52
20696;BME280;10507;52.754;13.040;2023-07-24T11:45:16;99254.66;;;26.30;72.43
20696;BME280;10507;52.754;13.040;2023-07-24T11:47:45;99359.38;;;24.25;82.49
20696;BME280;10507;52.754;13.040;2023-07-24T11:50:13;99431.50;;;23.43;87.50
20696;BME280;10507;52.754;13.040;2023-07-24T11:52:45;99472.22;;;22.92;93.08
20696;BME280;10507;52.754;13.040;2023-07-24T11:55:15;99497.16;;;22.57;95.87
20696;BME280;10507;52.754;13.040;2023-07-24T11:57:54;99501.81;;;22.49;98.61
20696;BME280;10507;52.754;13.040;2023-07-24T12:00:22;99529.63;;;22.59;99.71
20696;BME280;10507;52.754;13.040;2023-07-24T12:02:51;99533.44;;;22.50;99.98
20696;BME280;10507;52.754;13.040;2023-07-24T12:05:19;99544.84;;;22.53;100.00
20696;BME280;10507;52.754;13.040;2023-07-24T12:07:50;99561.66;;;22.49;100.00
20696;BME280;10507;52.754;13.040;2023-07-24T12:10:25;99557.81;;;22.43;100.00
20696;BME280;10507;52.754;13.040;2023-07-24T12:12:59;99569.91;;;22.40;100.00
20696;BME280;10507;52.754;13.040;2023-07-24T12:15:28;99577.41;;;22.61;100.00
20696;BME280;10507;52.754;13.040;2023-07-24T12:18:28;99573.91;;;22.76;100.00
20696;BME280;10507;52.754;13.040;2023-07-24T12:20:56;99571.50;;;22.96;100.00
20696;BME280;10507;52.754;13.040;2023-07-24T12:23:25;99563.72;;;22.93;100.00
20696;BME280;10507;52.754;13.040;2023-07-24T12:25:53;99591.06;;;23.37;100.00
20696;BME280;10507;52.754;13.040;2023-07-24T12:28:21;99561.78;;;23.54;99.16
20696;BME280;10507;52.754;13.040;2023-07-24T12:30:49;99594.88;;;23.81;99.93
20696;BME280;10507;52.754;13.040;2023-07-24T12:33:17;99487.47;;;23.45;96.73
20696;BME280;10507;52.754;13.040;2023-07-24T12:35:50;99554.56;;;23.76;96.80
20696;BME280;10507;52.754;13.040;2023-07-24T12:38:18;99520.91;;;23.84;94.27
20696;BME280;10507;52.754;13.040;2023-07-24T12:40:47;99507.97;;;24.07;92.32
20696;BME280;10507;52.754;13.040;2023-07-24T12:43:15;99515.28;;;24.22;91.11
20696;BME280;10507;52.754;13.040;2023-07-24T12:45:43;99491.28;;;24.39;89.12
20696;BME280;10507;52.754;13.040;2023-07-24T12:48:11;99441.34;;;24.17;87.72
20696;BME280;10507;52.754;13.040;2023-07-24T12:50:39;99477.44;;;24.19;88.95
20696;BME280;10507;52.754;13.040;2023-07-24T12:53:07;99491.88;;;24.34;88.87
20696;BME280;10507;52.754;13.040;2023-07-24T12:55:39;99459.28;;;24.47;87.37
20696;BME280;10507;52.754;13.040;2023-07-24T12:58:08;99511.16;;;24.69;88.20